sensor_id;sensor_type;location;lat;lon;timestamp;P1;durP1;ratioP1;P2;durP2;ratioP2
33138;SDS011;19501;50.948;5.316;2022-12-15T00:01:56;87.50;;;39.78;;
33138;SDS011;19501;50.948;5.316;2022-12-15T00:04:40;91.20;;;39.88;;
33138;SDS011;19501;50.948;5.316;2022-12-15T00:07:24;85.68;;;38.75;;
33138;SDS011;19501;50.948;5.316;2022-12-15T00:10:09;93.32;;;39.33;;
33138;SDS011;19501;50.948;5.316;2022-12-15T00:12:53;87.13;;;39.92;;
33138;SDS011;19501;50.948;5.316;2022-12-15T00:15:37;87.75;;;41.08;;
33138;SDS011;19501;50.948;5.316;2022-12-15T00:18:21;92.55;;;39.35;;
33138;SDS011;19501;50.948;5.316;2022-12-15T00:21:06;94.88;;;41.22;;
33138;SDS011;19501;50.948;5.316;2022-12-15T00:23:50;104.20;;;42.05;;
33138;SDS011;19501;50.948;5.316;2022-12-15T00:26:34;89.75;;;39.40;;
33138;SDS011;19501;50.948;5.316;2022-12-15T00:29:18;91.07;;;43.78;;
33138;SDS011;19501;50.948;5.316;2022-12-15T00:32:02;97.68;;;46.70;;
33138;SDS011;19501;50.948;5.316;2022-12-15T00:34:47;90.60;;;40.78;;
33138;SDS011;19501;50.948;5.316;2022-12-15T00:37:31;101.97;;;43.15;;
33138;SDS011;19501;50.948;5.316;2022-12-15T00:40:15;87.13;;;41.05;;
33138;SDS011;19501;50.948;5.316;2022-12-15T00:42:41;91.40;;;42.88;;
33138;SDS011;19501;50.948;5.316;2022-12-15T00:45:08;90.65;;;44.58;;
33138;SDS011;19501;50.948;5.316;2022-12-15T00:47:34;87.22;;;40.83;;
33138;SDS011;19501;50.948;5.316;2022-12-15T00:50:01;90.97;;;42.33;;
33138;SDS011;19501;50.948;5.316;2022-12-15T00:52:46;98.22;;;42.70;;
33138;SDS011;19501;50.948;5.316;2022-12-15T00:55:30;92.60;;;39.42;;
33138;SDS011;19501;50.948;5.316;2022-12-15T00:58:15;91.80;;;40.97;;
33138;SDS011;19501;50.948;5.316;2022-12-15T01:01:04;89.88;;;40.50;;
33138;SDS011;19501;50.948;5.316;2022-12-15T01:03:52;99.75;;;41.83;;
33138;SDS011;19501;50.948;5.316;2022-12-15T01:06:36;90.97;;;40.63;;
33138;SDS011;19501;50.948;5.316;2022-12-15T01:09:20;94.10;;;39.53;;
33138;SDS011;19501;50.948;5.316;2022-12-15T01:12:05;94.82;;;43.70;;
33138;SDS011;19501;50.948;5.316;2022-12-15T01:14:49;93.13;;;44.63;;
33138;SDS011;19501;50.948;5.316;2022-12-15T01:17:33;92.78;;;41.42;;
33138;SDS011;19501;50.948;5.316;2022-12-15T01:20:18;99.50;;;41.47;;
33138;SDS011;19501;50.948;5.316;2022-12-15T01:22:48;100.38;;;45.17;;
33138;SDS011;19501;50.948;5.316;2022-12-15T01:25:18;104.82;;;45.17;;
33138;SDS011;19501;50.948;5.316;2022-12-15T01:27:46;85.38;;;42.33;;
33138;SDS011;19501;50.948;5.316;2022-12-15T01:30:15;93.15;;;42.15;;
33138;SDS011;19501;50.948;5.316;2022-12-15T01:32:43;89.00;;;41.47;;
33138;SDS011;19501;50.948;5.316;2022-12-15T01:35:11;93.65;;;42.97;;
33138;SDS011;19501;50.948;5.316;2022-12-15T01:37:39;91.82;;;40.33;;
33138;SDS011;19501;50.948;5.316;2022-12-15T01:40:06;98.10;;;41.70;;
33138;SDS011;19501;50.948;5.316;2022-12-15T01:42:51;92.40;;;40.35;;
33138;SDS011;19501;50.948;5.316;2022-12-15T01:50:24;91.88;;;39.45;;
33138;SDS011;19501;50.948;5.316;2022-12-15T01:52:51;88.28;;;39.00;;
33138;SDS011;19501;50.948;5.316;2022-12-15T01:55:19;79.68;;;38.13;;
33138;SDS011;19501;50.948;5.316;2022-12-15T01:57:51;92.25;;;38.85;;
33138;SDS011;19501;50.948;5.316;2022-12-15T02:00:20;82.45;;;37.35;;
33138;SDS011;19501;50.948;5.316;2022-12-15T02:02:46;92.45;;;40.08;;
33138;SDS011;19501;50.948;5.316;2022-12-15T02:05:12;95.20;;;39.70;;
33138;SDS011;19501;50.948;5.316;2022-12-15T02:07:38;88.22;;;39.63;;
33138;SDS011;19501;50.948;5.316;2022-12-15T02:10:04;83.68;;;40.55;;
33138;SDS011;19501;50.948;5.316;2022-12-15T02:15:29;95.53;;;40.88;;
33138;SDS011;19501;50.948;5.316;2022-12-15T02:21:32;81.18;;;37.95;;
33138;SDS011;19501;50.948;5.316;2022-12-15T02:33:09;84.20;;;36.58;;
33138;SDS011;19501;50.948;5.316;2022-12-15T02:38:27;62.55;;;29.60;;
33138;SDS011;19501;50.948;5.316;2022-12-15T02:43:59;90.47;;;40.45;;
33138;SDS011;19501;50.948;5.316;2022-12-15T02:46:34;89.35;;;40.33;;
33138;SDS011;19501;50.948;5.316;2022-12-15T02:52:29;88.30;;;38.33;;
33138;SDS011;19501;50.948;5.316;2022-12-15T02:58:05;86.75;;;39.92;;
33138;SDS011;19501;50.948;5.316;2022-12-15T03:00:40;83.82;;;39.25;;
33138;SDS011;19501;50.948;5.316;2022-12-15T03:03:10;71.80;;;32.13;;
33138;SDS011;19501;50.948;5.316;2022-12-15T03:05:39;88.03;;;39.03;;
33138;SDS011;19501;50.948;5.316;2022-12-15T03:08:05;83.57;;;37.65;;
33138;SDS011;19501;50.948;5.316;2022-12-15T03:10:30;93.20;;;38.20;;
33138;SDS011;19501;50.948;5.316;2022-12-15T03:12:56;82.72;;;38.00;;
33138;SDS011;19501;50.948;5.316;2022-12-15T03:15:22;83.93;;;38.15;;
33138;SDS011;19501;50.948;5.316;2022-12-15T03:17:48;86.90;;;36.97;;
33138;SDS011;19501;50.948;5.316;2022-12-15T03:20:14;90.40;;;38.25;;
33138;SDS011;19501;50.948;5.316;2022-12-15T03:22:40;83.55;;;38.65;;
33138;SDS011;19501;50.948;5.316;2022-12-15T03:25:05;86.43;;;38.60;;
33138;SDS011;19501;50.948;5.316;2022-12-15T03:27:31;90.53;;;40.08;;
33138;SDS011;19501;50.948;5.316;2022-12-15T03:29:57;79.47;;;36.78;;
33138;SDS011;19501;50.948;5.316;2022-12-15T03:32:22;82.03;;;36.60;;
33138;SDS011;19501;50.948;5.316;2022-12-15T03:34:48;96.60;;;41.00;;
33138;SDS011;19501;50.948;5.316;2022-12-15T03:37:14;85.40;;;37.30;;
33138;SDS011;19501;50.948;5.316;2022-12-15T03:39:40;90.35;;;37.90;;
33138;SDS011;19501;50.948;5.316;2022-12-15T03:42:05;83.03;;;37.95;;
33138;SDS011;19501;50.948;5.316;2022-12-15T03:44:31;88.07;;;36.85;;
33138;SDS011;19501;50.948;5.316;2022-12-15T03:46:57;85.20;;;37.40;;
33138;SDS011;19501;50.948;5.316;2022-12-15T03:49:23;83.55;;;37.25;;
33138;SDS011;19501;50.948;5.316;2022-12-15T03:51:49;87.63;;;39.17;;
33138;SDS011;19501;50.948;5.316;2022-12-15T03:54:16;78.63;;;36.42;;
33138;SDS011;19501;50.948;5.316;2022-12-15T03:56:42;81.75;;;36.35;;
33138;SDS011;19501;50.948;5.316;2022-12-15T03:59:08;79.57;;;36.38;;
33138;SDS011;19501;50.948;5.316;2022-12-15T04:01:34;84.20;;;36.17;;
33138;SDS011;19501;50.948;5.316;2022-12-15T04:04:01;80.65;;;34.90;;
33138;SDS011;19501;50.948;5.316;2022-12-15T04:06:28;81.43;;;36.15;;
33138;SDS011;19501;50.948;5.316;2022-12-15T04:08:54;90.40;;;38.67;;
33138;SDS011;19501;50.948;5.316;2022-12-15T04:11:20;82.63;;;37.97;;
33138;SDS011;19501;50.948;5.316;2022-12-15T04:13:46;86.43;;;36.83;;
33138;SDS011;19501;50.948;5.316;2022-12-15T04:16:12;87.00;;;35.63;;
33138;SDS011;19501;50.948;5.316;2022-12-15T04:18:37;81.80;;;34.85;;
33138;SDS011;19501;50.948;5.316;2022-12-15T04:21:03;82.25;;;36.90;;
33138;SDS011;19501;50.948;5.316;2022-12-15T04:23:31;88.00;;;36.53;;
33138;SDS011;19501;50.948;5.316;2022-12-15T04:25:57;80.20;;;35.90;;
33138;SDS011;19501;50.948;5.316;2022-12-15T04:28:41;83.15;;;35.80;;
33138;SDS011;19501;50.948;5.316;2022-12-15T04:31:29;71.57;;;33.78;;
33138;SDS011;19501;50.948;5.316;2022-12-15T04:34:18;76.97;;;34.80;;
33138;SDS011;19501;50.948;5.316;2022-12-15T04:37:06;76.88;;;34.63;;
33138;SDS011;19501;50.948;5.316;2022-12-15T04:39:54;77.13;;;33.80;;
33138;SDS011;19501;50.948;5.316;2022-12-15T04:42:42;79.25;;;33.38;;
33138;SDS011;19501;50.948;5.316;2022-12-15T04:45:28;75.07;;;33.58;;
33138;SDS011;19501;50.948;5.316;2022-12-15T04:48:13;74.80;;;33.88;;
33138;SDS011;19501;50.948;5.316;2022-12-15T04:50:57;77.05;;;32.88;;
33138;SDS011;19501;50.948;5.316;2022-12-15T04:53:42;86.32;;;33.08;;
33138;SDS011;19501;50.948;5.316;2022-12-15T04:56:27;84.43;;;33.58;;
33138;SDS011;19501;50.948;5.316;2022-12-15T04:59:11;79.40;;;33.47;;
33138;SDS011;19501;50.948;5.316;2022-12-15T05:01:58;80.78;;;32.92;;
33138;SDS011;19501;50.948;5.316;2022-12-15T05:04:42;75.80;;;31.02;;
33138;SDS011;19501;50.948;5.316;2022-12-15T05:07:26;70.75;;;31.95;;
33138;SDS011;19501;50.948;5.316;2022-12-15T05:10:10;73.63;;;32.17;;
33138;SDS011;19501;50.948;5.316;2022-12-15T05:12:54;72.05;;;33.08;;
33138;SDS011;19501;50.948;5.316;2022-12-15T05:15:45;69.03;;;31.02;;
33138;SDS011;19501;50.948;5.316;2022-12-15T05:18:29;72.40;;;31.90;;
33138;SDS011;19501;50.948;5.316;2022-12-15T05:21:13;72.90;;;31.42;;
33138;SDS011;19501;50.948;5.316;2022-12-15T05:23:57;80.80;;;32.80;;
33138;SDS011;19501;50.948;5.316;2022-12-15T05:26:41;74.65;;;32.67;;
33138;SDS011;19501;50.948;5.316;2022-12-15T05:29:25;71.85;;;31.55;;
33138;SDS011;19501;50.948;5.316;2022-12-15T05:32:09;69.97;;;29.15;;
33138;SDS011;19501;50.948;5.316;2022-12-15T05:34:37;71.88;;;30.70;;
33138;SDS011;19501;50.948;5.316;2022-12-15T05:37:03;78.45;;;33.95;;
33138;SDS011;19501;50.948;5.316;2022-12-15T05:39:31;76.28;;;33.25;;
33138;SDS011;19501;50.948;5.316;2022-12-15T05:41:57;76.72;;;31.88;;
33138;SDS011;19501;50.948;5.316;2022-12-15T05:44:23;78.22;;;33.78;;
33138;SDS011;19501;50.948;5.316;2022-12-15T05:46:49;73.65;;;30.42;;
33138;SDS011;19501;50.948;5.316;2022-12-15T05:49:16;73.07;;;31.73;;
33138;SDS011;19501;50.948;5.316;2022-12-15T05:51:44;77.47;;;34.30;;
33138;SDS011;19501;50.948;5.316;2022-12-15T05:54:12;68.57;;;30.75;;
33138;SDS011;19501;50.948;5.316;2022-12-15T05:56:39;75.90;;;32.70;;
33138;SDS011;19501;50.948;5.316;2022-12-15T05:59:05;77.95;;;33.75;;
33138;SDS011;19501;50.948;5.316;2022-12-15T06:01:31;75.50;;;33.33;;
33138;SDS011;19501;50.948;5.316;2022-12-15T06:03:59;74.70;;;31.98;;
33138;SDS011;19501;50.948;5.316;2022-12-15T06:06:25;80.45;;;33.45;;
33138;SDS011;19501;50.948;5.316;2022-12-15T06:08:52;68.93;;;31.38;;
33138;SDS011;19501;50.948;5.316;2022-12-15T06:11:18;79.57;;;32.30;;
33138;SDS011;19501;50.948;5.316;2022-12-15T06:13:45;74.50;;;33.80;;
33138;SDS011;19501;50.948;5.316;2022-12-15T06:18:39;74.75;;;32.72;;
33138;SDS011;19501;50.948;5.316;2022-12-15T06:21:11;75.15;;;32.00;;
33138;SDS011;19501;50.948;5.316;2022-12-15T06:23:39;76.03;;;31.10;;
33138;SDS011;19501;50.948;5.316;2022-12-15T06:26:08;66.82;;;32.90;;
33138;SDS011;19501;50.948;5.316;2022-12-15T06:28:34;73.25;;;30.67;;
33138;SDS011;19501;50.948;5.316;2022-12-15T06:31:00;73.78;;;31.83;;
33138;SDS011;19501;50.948;5.316;2022-12-15T06:33:29;77.13;;;33.13;;
33138;SDS011;19501;50.948;5.316;2022-12-15T06:36:04;76.60;;;33.50;;
33138;SDS011;19501;50.948;5.316;2022-12-15T06:38:32;77.18;;;32.80;;
33138;SDS011;19501;50.948;5.316;2022-12-15T06:40:59;74.28;;;32.95;;
33138;SDS011;19501;50.948;5.316;2022-12-15T06:43:26;76.40;;;35.20;;
33138;SDS011;19501;50.948;5.316;2022-12-15T06:45:53;82.63;;;35.30;;
33138;SDS011;19501;50.948;5.316;2022-12-15T06:48:20;99.68;;;36.35;;
33138;SDS011;19501;50.948;5.316;2022-12-15T06:50:51;85.93;;;36.08;;
33138;SDS011;19501;50.948;5.316;2022-12-15T06:53:18;81.88;;;34.45;;
33138;SDS011;19501;50.948;5.316;2022-12-15T06:55:45;88.18;;;34.95;;
33138;SDS011;19501;50.948;5.316;2022-12-15T06:58:12;71.13;;;32.63;;
33138;SDS011;19501;50.948;5.316;2022-12-15T07:00:42;80.82;;;35.20;;
33138;SDS011;19501;50.948;5.316;2022-12-15T07:03:13;80.32;;;33.10;;
33138;SDS011;19501;50.948;5.316;2022-12-15T07:05:41;79.78;;;32.15;;
33138;SDS011;19501;50.948;5.316;2022-12-15T07:08:08;75.60;;;32.13;;
33138;SDS011;19501;50.948;5.316;2022-12-15T07:10:41;76.90;;;31.98;;
33138;SDS011;19501;50.948;5.316;2022-12-15T07:13:09;76.65;;;32.60;;
33138;SDS011;19501;50.948;5.316;2022-12-15T07:15:36;69.13;;;32.22;;
33138;SDS011;19501;50.948;5.316;2022-12-15T07:18:03;65.00;;;29.85;;
33138;SDS011;19501;50.948;5.316;2022-12-15T07:20:31;75.35;;;32.58;;
33138;SDS011;19501;50.948;5.316;2022-12-15T07:22:57;76.38;;;32.25;;
33138;SDS011;19501;50.948;5.316;2022-12-15T07:25:25;73.90;;;31.27;;
33138;SDS011;19501;50.948;5.316;2022-12-15T07:27:51;79.65;;;33.88;;
33138;SDS011;19501;50.948;5.316;2022-12-15T07:30:17;76.28;;;33.65;;
33138;SDS011;19501;50.948;5.316;2022-12-15T07:32:42;75.88;;;32.38;;
33138;SDS011;19501;50.948;5.316;2022-12-15T07:35:10;73.45;;;32.15;;
33138;SDS011;19501;50.948;5.316;2022-12-15T07:37:36;72.68;;;32.30;;
33138;SDS011;19501;50.948;5.316;2022-12-15T07:40:03;67.93;;;31.52;;
33138;SDS011;19501;50.948;5.316;2022-12-15T07:42:30;81.85;;;33.15;;
33138;SDS011;19501;50.948;5.316;2022-12-15T07:44:56;70.28;;;32.63;;
33138;SDS011;19501;50.948;5.316;2022-12-15T07:47:22;74.07;;;33.17;;
33138;SDS011;19501;50.948;5.316;2022-12-15T07:49:49;72.13;;;34.58;;
33138;SDS011;19501;50.948;5.316;2022-12-15T07:52:15;70.28;;;32.58;;
33138;SDS011;19501;50.948;5.316;2022-12-15T07:54:41;80.38;;;34.03;;
33138;SDS011;19501;50.948;5.316;2022-12-15T07:57:06;75.25;;;34.30;;
33138;SDS011;19501;50.948;5.316;2022-12-15T07:59:33;81.03;;;34.00;;
33138;SDS011;19501;50.948;5.316;2022-12-15T08:01:59;83.65;;;36.17;;
33138;SDS011;19501;50.948;5.316;2022-12-15T08:04:28;75.20;;;34.35;;
33138;SDS011;19501;50.948;5.316;2022-12-15T08:06:57;82.47;;;34.60;;
33138;SDS011;19501;50.948;5.316;2022-12-15T08:09:23;82.07;;;34.03;;
33138;SDS011;19501;50.948;5.316;2022-12-15T08:11:49;70.63;;;34.33;;
33138;SDS011;19501;50.948;5.316;2022-12-15T08:14:16;78.57;;;32.85;;
33138;SDS011;19501;50.948;5.316;2022-12-15T08:16:42;68.93;;;32.05;;
33138;SDS011;19501;50.948;5.316;2022-12-15T08:19:11;76.13;;;34.38;;
33138;SDS011;19501;50.948;5.316;2022-12-15T08:21:39;74.65;;;32.45;;
33138;SDS011;19501;50.948;5.316;2022-12-15T08:24:07;75.25;;;33.25;;
33138;SDS011;19501;50.948;5.316;2022-12-15T08:26:34;78.43;;;34.97;;
33138;SDS011;19501;50.948;5.316;2022-12-15T08:29:05;67.32;;;31.77;;
33138;SDS011;19501;50.948;5.316;2022-12-15T08:31:33;76.78;;;33.83;;
33138;SDS011;19501;50.948;5.316;2022-12-15T08:33:59;73.13;;;33.03;;
33138;SDS011;19501;50.948;5.316;2022-12-15T08:36:27;79.22;;;31.75;;
33138;SDS011;19501;50.948;5.316;2022-12-15T08:38:54;84.68;;;33.30;;
33138;SDS011;19501;50.948;5.316;2022-12-15T08:41:25;82.07;;;34.60;;
33138;SDS011;19501;50.948;5.316;2022-12-15T08:43:53;66.40;;;27.30;;
33138;SDS011;19501;50.948;5.316;2022-12-15T08:46:24;78.82;;;33.30;;
33138;SDS011;19501;50.948;5.316;2022-12-15T08:48:52;78.88;;;33.10;;
33138;SDS011;19501;50.948;5.316;2022-12-15T08:51:19;82.68;;;32.72;;
33138;SDS011;19501;50.948;5.316;2022-12-15T08:53:45;88.68;;;37.33;;
33138;SDS011;19501;50.948;5.316;2022-12-15T08:56:13;90.50;;;36.97;;
33138;SDS011;19501;50.948;5.316;2022-12-15T08:58:41;94.00;;;38.17;;
33138;SDS011;19501;50.948;5.316;2022-12-15T09:01:08;89.75;;;36.53;;
33138;SDS011;19501;50.948;5.316;2022-12-15T09:03:37;87.45;;;39.08;;
33138;SDS011;19501;50.948;5.316;2022-12-15T09:06:04;92.28;;;39.47;;
33138;SDS011;19501;50.948;5.316;2022-12-15T09:08:31;92.63;;;41.55;;
33138;SDS011;19501;50.948;5.316;2022-12-15T09:10:58;89.85;;;41.63;;
33138;SDS011;19501;50.948;5.316;2022-12-15T09:13:25;101.25;;;42.63;;
33138;SDS011;19501;50.948;5.316;2022-12-15T09:15:54;93.60;;;43.97;;
33138;SDS011;19501;50.948;5.316;2022-12-15T09:18:31;101.88;;;43.28;;
33138;SDS011;19501;50.948;5.316;2022-12-15T09:21:00;97.47;;;42.92;;
33138;SDS011;19501;50.948;5.316;2022-12-15T09:23:47;93.13;;;43.35;;
33138;SDS011;19501;50.948;5.316;2022-12-15T09:26:16;100.03;;;45.03;;
33138;SDS011;19501;50.948;5.316;2022-12-15T09:28:43;104.03;;;46.38;;
33138;SDS011;19501;50.948;5.316;2022-12-15T09:33:36;102.57;;;46.90;;
33138;SDS011;19501;50.948;5.316;2022-12-15T09:36:02;101.35;;;45.60;;
33138;SDS011;19501;50.948;5.316;2022-12-15T09:38:29;104.90;;;46.25;;
33138;SDS011;19501;50.948;5.316;2022-12-15T09:40:55;95.40;;;43.28;;
33138;SDS011;19501;50.948;5.316;2022-12-15T09:43:22;98.97;;;46.00;;
33138;SDS011;19501;50.948;5.316;2022-12-15T09:45:52;109.68;;;51.53;;
33138;SDS011;19501;50.948;5.316;2022-12-15T09:48:30;102.88;;;48.10;;
33138;SDS011;19501;50.948;5.316;2022-12-15T09:51:03;96.97;;;44.33;;
33138;SDS011;19501;50.948;5.316;2022-12-15T09:53:31;100.18;;;45.03;;
33138;SDS011;19501;50.948;5.316;2022-12-15T09:56:00;95.15;;;45.38;;
33138;SDS011;19501;50.948;5.316;2022-12-15T09:58:37;110.18;;;46.55;;
33138;SDS011;19501;50.948;5.316;2022-12-15T10:03:39;96.45;;;44.47;;
33138;SDS011;19501;50.948;5.316;2022-12-15T10:06:36;94.80;;;44.85;;
33138;SDS011;19501;50.948;5.316;2022-12-15T10:22:22;102.43;;;45.13;;
33138;SDS011;19501;50.948;5.316;2022-12-15T10:24:54;91.63;;;43.20;;
33138;SDS011;19501;50.948;5.316;2022-12-15T10:30:03;104.75;;;45.70;;
33138;SDS011;19501;50.948;5.316;2022-12-15T10:35:27;100.90;;;44.28;;
33138;SDS011;19501;50.948;5.316;2022-12-15T10:37:59;100.60;;;45.33;;
33138;SDS011;19501;50.948;5.316;2022-12-15T10:40:43;98.53;;;44.20;;
33138;SDS011;19501;50.948;5.316;2022-12-15T10:43:17;92.20;;;42.42;;
33138;SDS011;19501;50.948;5.316;2022-12-15T10:46:02;91.07;;;42.63;;
33138;SDS011;19501;50.948;5.316;2022-12-15T10:48:45;92.72;;;42.83;;
33138;SDS011;19501;50.948;5.316;2022-12-15T10:51:19;102.97;;;44.22;;
33138;SDS011;19501;50.948;5.316;2022-12-15T10:53:47;92.45;;;43.28;;
33138;SDS011;19501;50.948;5.316;2022-12-15T10:56:22;106.25;;;49.20;;
33138;SDS011;19501;50.948;5.316;2022-12-15T10:58:51;98.82;;;46.22;;
33138;SDS011;19501;50.948;5.316;2022-12-15T11:01:25;85.53;;;37.33;;
33138;SDS011;19501;50.948;5.316;2022-12-15T11:03:53;104.00;;;46.03;;
33138;SDS011;19501;50.948;5.316;2022-12-15T11:06:24;90.07;;;42.08;;
33138;SDS011;19501;50.948;5.316;2022-12-15T11:08:56;104.70;;;48.10;;
33138;SDS011;19501;50.948;5.316;2022-12-15T11:11:33;100.20;;;45.80;;
33138;SDS011;19501;50.948;5.316;2022-12-15T11:14:28;96.55;;;44.45;;
33138;SDS011;19501;50.948;5.316;2022-12-15T11:17:15;96.28;;;44.22;;
33138;SDS011;19501;50.948;5.316;2022-12-15T11:22:25;89.82;;;43.00;;
33138;SDS011;19501;50.948;5.316;2022-12-15T11:28:07;80.95;;;40.58;;
33138;SDS011;19501;50.948;5.316;2022-12-15T11:30:40;83.70;;;42.53;;
33138;SDS011;19501;50.948;5.316;2022-12-15T11:33:10;84.30;;;40.45;;
33138;SDS011;19501;50.948;5.316;2022-12-15T11:38:25;73.63;;;39.85;;
33138;SDS011;19501;50.948;5.316;2022-12-15T11:40:56;76.13;;;39.27;;
33138;SDS011;19501;50.948;5.316;2022-12-15T11:43:39;76.75;;;39.72;;
33138;SDS011;19501;50.948;5.316;2022-12-15T11:46:41;76.68;;;39.67;;
33138;SDS011;19501;50.948;5.316;2022-12-15T12:00:42;69.20;;;38.83;;
33138;SDS011;19501;50.948;5.316;2022-12-15T12:03:43;70.93;;;39.53;;
33138;SDS011;19501;50.948;5.316;2022-12-15T12:06:33;67.18;;;37.65;;
33138;SDS011;19501;50.948;5.316;2022-12-15T12:09:13;73.25;;;39.78;;
33138;SDS011;19501;50.948;5.316;2022-12-15T12:14:40;62.80;;;37.20;;
33138;SDS011;19501;50.948;5.316;2022-12-15T12:20:28;61.05;;;38.40;;
33138;SDS011;19501;50.948;5.316;2022-12-15T12:26:03;69.38;;;39.60;;
33138;SDS011;19501;50.948;5.316;2022-12-15T12:28:51;66.93;;;38.20;;
33138;SDS011;19501;50.948;5.316;2022-12-15T12:34:21;59.97;;;33.38;;
33138;SDS011;19501;50.948;5.316;2022-12-15T12:37:00;55.22;;;32.17;;
33138;SDS011;19501;50.948;5.316;2022-12-15T12:39:38;53.55;;;32.05;;
33138;SDS011;19501;50.948;5.316;2022-12-15T12:44:41;56.47;;;34.05;;
33138;SDS011;19501;50.948;5.316;2022-12-15T12:47:11;55.47;;;33.97;;
33138;SDS011;19501;50.948;5.316;2022-12-15T12:49:46;57.88;;;34.00;;
33138;SDS011;19501;50.948;5.316;2022-12-15T12:52:27;57.40;;;35.15;;
33138;SDS011;19501;50.948;5.316;2022-12-15T12:57:38;60.42;;;37.00;;
33138;SDS011;19501;50.948;5.316;2022-12-15T13:05:36;53.65;;;31.63;;
33138;SDS011;19501;50.948;5.316;2022-12-15T13:10:38;56.55;;;34.33;;
33138;SDS011;19501;50.948;5.316;2022-12-15T13:18:55;59.90;;;34.83;;
33138;SDS011;19501;50.948;5.316;2022-12-15T13:29:29;57.83;;;34.90;;
33138;SDS011;19501;50.948;5.316;2022-12-15T13:31:55;53.78;;;35.00;;
33138;SDS011;19501;50.948;5.316;2022-12-15T13:34:22;50.90;;;35.25;;
33138;SDS011;19501;50.948;5.316;2022-12-15T13:36:51;55.58;;;33.40;;
33138;SDS011;19501;50.948;5.316;2022-12-15T13:44:14;57.03;;;35.05;;
33138;SDS011;19501;50.948;5.316;2022-12-15T13:46:50;56.22;;;35.78;;
33138;SDS011;19501;50.948;5.316;2022-12-15T13:49:36;56.90;;;35.90;;
33138;SDS011;19501;50.948;5.316;2022-12-15T13:55:04;59.25;;;34.97;;
33138;SDS011;19501;50.948;5.316;2022-12-15T13:57:42;52.80;;;35.15;;
33138;SDS011;19501;50.948;5.316;2022-12-15T14:00:17;58.88;;;35.75;;
33138;SDS011;19501;50.948;5.316;2022-12-15T14:02:46;56.28;;;35.42;;
33138;SDS011;19501;50.948;5.316;2022-12-15T14:05:16;57.00;;;35.67;;
33138;SDS011;19501;50.948;5.316;2022-12-15T14:10:26;62.97;;;40.17;;
33138;SDS011;19501;50.948;5.316;2022-12-15T14:13:02;61.85;;;37.95;;
33138;SDS011;19501;50.948;5.316;2022-12-15T14:15:43;65.72;;;41.40;;
33138;SDS011;19501;50.948;5.316;2022-12-15T14:18:27;66.30;;;38.38;;
33138;SDS011;19501;50.948;5.316;2022-12-15T14:20:55;69.13;;;38.13;;
33138;SDS011;19501;50.948;5.316;2022-12-15T14:23:26;67.43;;;37.85;;
33138;SDS011;19501;50.948;5.316;2022-12-15T14:25:55;69.33;;;39.20;;
33138;SDS011;19501;50.948;5.316;2022-12-15T14:28:28;70.65;;;37.90;;
33138;SDS011;19501;50.948;5.316;2022-12-15T14:31:03;67.20;;;34.10;;
33138;SDS011;19501;50.948;5.316;2022-12-15T14:33:35;66.40;;;34.67;;
33138;SDS011;19501;50.948;5.316;2022-12-15T14:38:35;66.45;;;33.38;;
33138;SDS011;19501;50.948;5.316;2022-12-15T14:41:21;64.60;;;32.85;;
33138;SDS011;19501;50.948;5.316;2022-12-15T14:44:03;69.28;;;33.35;;
33138;SDS011;19501;50.948;5.316;2022-12-15T14:46:44;69.95;;;33.75;;
33138;SDS011;19501;50.948;5.316;2022-12-15T14:49:15;69.57;;;34.78;;
33138;SDS011;19501;50.948;5.316;2022-12-15T14:51:45;53.30;;;28.30;;
33138;SDS011;19501;50.948;5.316;2022-12-15T14:57:15;69.18;;;35.60;;
33138;SDS011;19501;50.948;5.316;2022-12-15T14:59:47;75.90;;;37.05;;
33138;SDS011;19501;50.948;5.316;2022-12-15T15:02:20;76.18;;;37.10;;
33138;SDS011;19501;50.948;5.316;2022-12-15T15:07:20;72.07;;;32.42;;
33138;SDS011;19501;50.948;5.316;2022-12-15T15:09:47;73.43;;;38.70;;
33138;SDS011;19501;50.948;5.316;2022-12-15T15:12:15;73.30;;;36.28;;
33138;SDS011;19501;50.948;5.316;2022-12-15T15:14:44;71.22;;;35.65;;
33138;SDS011;19501;50.948;5.316;2022-12-15T15:20:03;67.15;;;33.85;;
33138;SDS011;19501;50.948;5.316;2022-12-15T15:22:36;71.90;;;35.50;;
33138;SDS011;19501;50.948;5.316;2022-12-15T15:27:50;68.68;;;33.70;;
33138;SDS011;19501;50.948;5.316;2022-12-15T15:30:17;74.05;;;36.78;;
33138;SDS011;19501;50.948;5.316;2022-12-15T15:35:16;78.47;;;36.45;;
33138;SDS011;19501;50.948;5.316;2022-12-15T15:37:43;75.03;;;34.75;;
33138;SDS011;19501;50.948;5.316;2022-12-15T15:40:09;68.20;;;34.47;;
33138;SDS011;19501;50.948;5.316;2022-12-15T15:42:37;76.70;;;34.47;;
33138;SDS011;19501;50.948;5.316;2022-12-15T15:45:06;75.85;;;39.83;;
33138;SDS011;19501;50.948;5.316;2022-12-15T15:47:43;75.20;;;38.10;;
33138;SDS011;19501;50.948;5.316;2022-12-15T15:50:12;77.45;;;38.17;;
33138;SDS011;19501;50.948;5.316;2022-12-15T15:52:40;76.60;;;37.90;;
33138;SDS011;19501;50.948;5.316;2022-12-15T15:55:08;81.00;;;38.50;;
33138;SDS011;19501;50.948;5.316;2022-12-15T15:57:39;86.15;;;40.35;;
33138;SDS011;19501;50.948;5.316;2022-12-15T16:00:18;74.43;;;36.63;;
33138;SDS011;19501;50.948;5.316;2022-12-15T16:02:45;82.63;;;38.05;;
33138;SDS011;19501;50.948;5.316;2022-12-15T16:05:12;79.68;;;36.70;;
33138;SDS011;19501;50.948;5.316;2022-12-15T16:07:39;79.10;;;37.75;;
33138;SDS011;19501;50.948;5.316;2022-12-15T16:10:10;73.15;;;35.50;;
33138;SDS011;19501;50.948;5.316;2022-12-15T16:12:45;56.63;;;27.58;;
33138;SDS011;19501;50.948;5.316;2022-12-15T16:15:23;76.28;;;36.80;;
33138;SDS011;19501;50.948;5.316;2022-12-15T16:17:51;76.78;;;32.97;;
33138;SDS011;19501;50.948;5.316;2022-12-15T16:20:18;79.20;;;34.38;;
33138;SDS011;19501;50.948;5.316;2022-12-15T16:22:49;78.03;;;34.92;;
33138;SDS011;19501;50.948;5.316;2022-12-15T16:25:21;74.05;;;35.65;;
33138;SDS011;19501;50.948;5.316;2022-12-15T16:27:58;72.25;;;34.78;;
33138;SDS011;19501;50.948;5.316;2022-12-15T16:30:25;71.93;;;35.65;;
33138;SDS011;19501;50.948;5.316;2022-12-15T16:32:52;70.50;;;34.03;;
33138;SDS011;19501;50.948;5.316;2022-12-15T16:35:18;74.65;;;35.42;;
33138;SDS011;19501;50.948;5.316;2022-12-15T16:37:48;78.40;;;36.00;;
33138;SDS011;19501;50.948;5.316;2022-12-15T16:40:15;73.13;;;34.35;;
33138;SDS011;19501;50.948;5.316;2022-12-15T16:43:08;68.70;;;35.90;;
33138;SDS011;19501;50.948;5.316;2022-12-15T16:45:34;72.20;;;34.85;;
33138;SDS011;19501;50.948;5.316;2022-12-15T16:47:59;77.50;;;35.40;;
33138;SDS011;19501;50.948;5.316;2022-12-15T16:50:28;73.47;;;34.63;;
33138;SDS011;19501;50.948;5.316;2022-12-15T16:52:56;78.32;;;37.03;;
33138;SDS011;19501;50.948;5.316;2022-12-15T16:55:23;80.88;;;36.90;;
33138;SDS011;19501;50.948;5.316;2022-12-15T16:57:51;79.30;;;34.08;;
33138;SDS011;19501;50.948;5.316;2022-12-15T17:00:22;74.63;;;35.88;;
33138;SDS011;19501;50.948;5.316;2022-12-15T17:02:53;76.25;;;35.55;;
33138;SDS011;19501;50.948;5.316;2022-12-15T17:05:19;75.07;;;36.30;;
33138;SDS011;19501;50.948;5.316;2022-12-15T17:07:48;76.53;;;37.90;;
33138;SDS011;19501;50.948;5.316;2022-12-15T17:10:20;77.63;;;37.88;;
33138;SDS011;19501;50.948;5.316;2022-12-15T17:12:49;87.28;;;37.58;;
33138;SDS011;19501;50.948;5.316;2022-12-15T17:15:18;86.38;;;38.05;;